Latest Coastal Weather Observations for King Island Airport

IDT60701

Issued at 5:12 am EDT Monday 23 January 2017 (issued every 10 minutes, with the page automatically refreshed every 10 minutes)

About coastal observations | Map of coastal stations | Coastal observations for TAS | Marine services | Other Formats
Station Details ID: 098017 Name: KING ISLAND AIRPORT Lat: -39.88 Lon: 143.88 Height: 37.0 m
Data from the previous 72 hours. | See also: Recent months at King Island Airport
Date/Time
EDT
Temp
°C
Wind Pressure Rain since
9am
mm
Weather Cloud Vis
km
Sea
Height
m
Swell
Dir  Spd
kts
Gust
kts
hPa Trend Height
m
Period
s
Dir
23/05:00am 16.2 E 9 10 1006.6 - 0.0 - - 10 - - - -
23/04:30am 15.8 E 7 9 1007.1 - 0.0 - - 10 - - - -
23/04:00am 15.6 E 8 10 1007.1 - 0.0 - - 10 - - - -
23/03:30am 15.6 E 9 10 1007.5 - 0.0 - - 10 - - - -
23/03:00am 15.6 E 8 10 1008.1 - 0.0 - Cloudy 10 - - - -
23/02:30am 15.4 E 8 9 1008.7 - 0.0 - - 10 - - - -
23/02:00am 15.6 E 9 10 1009.0 - 0.0 - - 10 - - - -
23/01:30am 15.7 E 9 10 1009.7 - 0.0 - - 10 - - - -
23/01:00am 15.8 E 8 10 1010.2 - 0.0 - - 10 - - - -
23/12:30am 15.9 ENE 8 10 1010.4 - 0.0 - - 10 - - - -
23/12:00am 15.9 E 11 14 1010.5 - 0.0 - Mostly cloudy 10 - - - -
 
Date/Time
EDT
Temp
°C
Wind Pressure Rain since
9am
mm
Weather Cloud Vis
km
Sea
Height
m
Swell
Dir  Spd
kts
Gust
kts
hPa Trend Height
m
Period
s
Dir
22/11:30pm 16.1 ENE 9 12 1011.2 - 0.0 - - 10 - - - -
22/11:00pm 16.2 E 9 14 1011.4 - 0.0 - - 10 - - - -
22/10:30pm 15.9 E 9 14 1011.8 - 0.0 - - 10 - - - -
22/10:00pm 15.7 E 9 10 1011.9 - 0.0 - - 10 - - - -
22/09:30pm 15.8 E 7 9 1012.1 - 0.0 - - 10 - - - -
22/09:00pm 16.5 E 8 9 1012.2 - 0.0 - - 10 - - - -
22/08:30pm 17.7 E 8 11 1012.6 - 0.0 - - 10 - - - -
22/08:00pm 18.8 ENE 9 12 1012.5 - 0.0 - - 10 - - - -
22/07:30pm 19.7 ENE 10 14 1012.5 - 0.0 - - 10 - - - -
22/07:00pm 20.5 ENE 9 12 1012.5 - 0.0 - - 10 - - - -
22/06:30pm 21.0 ENE 9 13 1012.4 - 0.0 - - 10 - - - -
22/06:00pm 21.3 WNW 7 9 1012.4 - 0.0 - - 10 - - - -
22/05:30pm 21.5 W 7 9 1012.9 - 0.0 - - 10 - - - -
22/05:00pm 21.3 W 7 10 1013.4 - 0.0 - - 10 - - - -
22/04:30pm 21.1 WSW 7 10 1013.6 - 0.0 - - 10 - - - -
22/04:00pm 20.8 W 7 11 1014.0 - 0.0 - - 10 - - - -
22/03:30pm 20.0 W 7 10 1014.3 - 0.0 - - 10 - - - -
22/03:00pm 20.4 W 7 10 1014.6 - 0.0 - - 10 - - - -
22/02:30pm 20.7 W 7 11 1014.7 - 0.0 - - 10 - - - -
22/02:00pm 20.3 NW 6 10 1014.9 - 0.0 - - 10 - - - -
22/01:30pm 20.3 W 7 9 1015.3 - 0.0 - - 10 - - - -
22/01:00pm 19.6 WNW 7 11 1015.7 - 0.0 - - 10 - - - -
22/12:30pm 20.3 WNW 8 10 1015.9 - 0.0 - - 10 - - - -
22/12:00pm 19.6 WNW 7 10 1015.8 - 0.0 - - 10 - - - -
22/11:30am 19.5 WNW 8 10 1015.8 - 0.0 - - 10 - - - -
22/11:00am 19.6 WNW 7 10 1015.7 - 0.0 - Partly cloudy 10 - - - -
22/10:30am 19.2 N 5 8 1015.7 - 0.0 - Partly cloudy 10 - - - -
22/10:00am 19.0 NNE 6 9 1016.0 - 0.0 - Partly cloudy 10 - - - -
22/09:34am 17.6 N 5 6 1016.1 - 0.0 - Partly cloudy 10 - - - -
22/09:30am 17.0 NNE 5 7 1016.2 - 0.0 - Partly cloudy 10 - - - -
22/09:22am 17.3 NNE 6 8 1016.4 - 0.0 - Partly cloudy 10 - - - -
22/09:01am 16.2 NNW 5 7 1016.5 - 0.0 - Partly cloudy 10 - - - -
22/09:00am 16.1 NNW 5 7 1016.5 - 0.0 - Mostly clear 10 - - - -
22/08:35am 15.8 NNE 6 7 1016.6 - 0.0 - Partly cloudy 10 - - - -
22/08:30am 15.9 NNE 5 7 1016.6 - 0.0 - Partly cloudy 10 - - - -
22/08:00am 14.1 NE 3 5 1016.5 - 0.0 - - 10 - - - -
22/07:30am 12.6 E 3 5 1016.3 - 0.0 - - 10 - - - -
22/07:17am 12.1 ESE 4 5 1016.3 - 0.0 - Partly cloudy 10 - - - -
22/07:16am 12.1 ESE 4 5 1016.3 - 0.0 - Partly cloudy 10 - - - -
22/07:00am 11.2 ESE 4 4 1016.2 - 0.0 - Partly cloudy 2 - - - -
22/06:30am 10.7 E 4 4 1016.0 - 0.0 - Partly cloudy 2 - - - -
22/06:24am 10.5 E 4 4 1016.0 - 0.0 - Partly cloudy 5 - - - -
22/06:22am 10.5 E 4 5 1015.9 - 0.0 - Partly cloudy 7 - - - -
22/06:00am 10.4 ESE 4 5 1015.8 - 0.0 - - 10 - - - -
22/05:30am 10.5 SE 4 4 1015.6 - 0.0 - - 10 - - - -
22/05:00am 9.8 ESE 5 5 1015.3 - 0.0 - - 10 - - - -
22/04:30am 10.1 ESE 4 5 1015.3 - 0.0 - - 10 - - - -
22/04:00am 11.4 ESE 4 5 1015.4 - 0.0 - Partly cloudy 10 - - - -
22/03:30am 12.1 E 2 3 1015.4 - 0.0 - - 10 - - - -
22/03:00am 11.9 SSE 1 4 1015.6 - 0.0 - - 10 - - - -
22/02:30am 12.0 CALM 0 0 1015.7 - 0.0 - - 10 - - - -
22/02:00am 12.1 CALM 0 0 1016.0 - 0.0 - Partly cloudy 10 - - - -
22/01:30am 12.3 CALM 0 0 1016.3 - 0.0 - - 10 - - - -
22/01:00am 13.3 SW 3 4 1016.4 - 0.0 - - 10 - - - -
22/12:30am 13.9 SW 4 4 1016.5 - 0.0 - - 10 - - - -
22/12:00am 14.1 SW 3 4 1016.6 - 0.0 - - 10 - - - -
 
Date/Time
EDT
Temp
°C
Wind Pressure Rain since
9am
mm
Weather Cloud Vis
km
Sea
Height
m
Swell
Dir  Spd
kts
Gust
kts
hPa Trend Height
m
Period
s
Dir
21/11:30pm 14.8 SW 5 6 1016.6 - 0.0 - - 10 - - - -
21/11:00pm 15.6 SW 8 10 1016.9 - 0.0 - Partly cloudy 10 - - - -
21/10:30pm 15.5 WSW 5 7 1016.9 - 0.0 - Partly cloudy 10 - - - -
21/10:00pm 15.5 WSW 7 9 1016.9 - 0.0 - Partly cloudy 10 - - - -
21/09:30pm 15.6 W 7 10 1016.8 - 0.0 - Partly cloudy 10 - - - -
21/09:00pm 15.7 W 7 9 1016.6 - 0.0 - - 10 - - - -
21/08:30pm 16.4 WSW 8 9 1016.4 - 0.0 - - 10 - - - -
21/08:00pm 17.4 W 8 10 1016.1 - 0.0 - - 10 - - - -
21/07:30pm 17.7 W 9 13 1015.8 - 0.0 - Partly cloudy 10 - - - -
21/07:00pm 17.5 W 10 13 1015.7 - 0.0 - Partly cloudy 10 - - - -
21/06:30pm 18.0 W 11 15 1015.5 - 0.0 - Partly cloudy 10 - - - -
21/06:00pm 18.1 W 11 15 1015.4 - 0.0 - Mostly clear 10 - - - -
21/05:30pm 18.7 W 12 16 1015.4 - 0.0 - Cloudy 10 - - - -
21/05:00pm 19.0 W 12 16 1015.5 - 0.0 - Partly cloudy 10 - - - -
21/04:30pm 19.3 W 14 18 1015.8 - 0.0 - Partly cloudy 10 - - - -
21/04:00pm 18.7 W 13 16 1015.8 - 0.0 - - 10 - - - -
21/03:30pm 18.3 W 13 18 1015.6 - 0.0 - Partly cloudy 10 - - - -
21/03:00pm 19.0 W 10 15 1015.6 - 0.0 - Mostly cloudy 10 - - - -
21/02:30pm 18.7 W 11 16 1015.6 - 0.0 - Partly cloudy 10 - - - -
21/02:00pm 18.0 W 12 16 1015.7 - 0.0 - Partly cloudy 10 - - - -
21/01:30pm 18.4 W 13 17 1015.6 - 0.0 - Partly cloudy 10 - - - -
21/01:00pm 18.2 W 13 18 1015.6 - 0.0 - Partly cloudy 10 - - - -
21/12:30pm 18.3 WSW 14 17 1015.5 - 0.0 - Partly cloudy 10 - - - -
21/12:00pm 18.0 W 13 16 1015.4 - 0.0 - Partly cloudy 10 - - - -
21/11:30am 17.4 WSW 12 16 1015.2 - 0.0 - Partly cloudy 10 - - - -
21/11:00am 17.8 WSW 13 16 1015.0 - 0.0 - Partly cloudy 10 - - - -
21/10:30am 16.7 WSW 12 16 1014.9 - 0.0 - Partly cloudy 10 - - - -
21/10:00am 16.8 W 12 16 1014.7 - 0.0 - Cloudy 10 - - - -
21/09:30am 16.1 WSW 13 17 1014.5 - 0.0 - Partly cloudy 10 - - - -
21/09:00am 16.3 WSW 12 15 1014.3 - 1.8 - Cloudy 10 - - - -
21/08:30am 16.0 WSW 11 14 1013.8 - 1.8 - Partly cloudy 10 - - - -
21/08:00am 16.1 WSW 9 14 1013.3 - 1.8 - Partly cloudy 10 - - - -
21/07:30am 14.8 WSW 9 14 1012.8 - 1.8 - Partly cloudy 10 - - - -
21/07:00am 14.5 WSW 8 11 1012.4 - 1.8 - Partly cloudy 10 - - - -
21/06:30am 14.4 WSW 11 15 1012.1 - 1.8 - Partly cloudy 10 - - - -
21/06:00am 14.1 WSW 10 15 1011.7 - 1.8 - Cloudy 10 - - - -
21/05:30am 14.1 WSW 9 12 1011.3 - 1.8 - Partly cloudy 10 - - - -
21/05:00am 13.8 WSW 7 9 1010.9 - 1.8 - Partly cloudy 10 - - - -
21/04:30am 13.6 WSW 8 11 1010.7 - 1.8 - Partly cloudy 10 - - - -
21/04:00am 13.6 WSW 8 11 1010.6 - 1.8 - Partly cloudy 10 - - - -
21/03:30am 13.4 WSW 8 10 1010.4 - 1.8 - Partly cloudy 10 - - - -
21/03:00am 13.4 SW 9 12 1010.3 - 1.8 - Mostly cloudy 10 - - - -
21/02:30am 13.3 SW 9 10 1010.3 - 1.8 - Partly cloudy 10 - - - -
21/02:00am 13.1 SW 10 14 1010.2 - 1.8 - Partly cloudy 10 - - - -
21/01:30am 13.2 SW 9 14 1010.1 - 1.8 - Partly cloudy 10 - - - -
21/01:00am 13.6 SW 10 14 1010.0 - 1.8 - Partly cloudy 10 - - - -
21/12:30am 13.6 SW 9 13 1009.9 - 1.8 - Partly cloudy 10 - - - -
21/12:00am 13.6 SW 10 14 1010.0 - 1.8 - Cloudy 10 - - - -
 
Date/Time
EDT
Temp
°C
Wind Pressure Rain since
9am
mm
Weather Cloud Vis
km
Sea
Height
m
Swell
Dir  Spd
kts
Gust
kts
hPa Trend Height
m
Period
s
Dir
20/11:30pm 13.3 SSW 10 14 1009.8 - 1.8 - Partly cloudy 10 - - - -
20/11:00pm 13.5 SW 12 16 1009.7 - 1.8 - Partly cloudy 10 - - - -
20/10:30pm 13.5 SW 12 17 1009.7 - 1.8 - Partly cloudy 10 - - - -
20/10:00pm 13.4 SSW 14 18 1009.3 - 1.8 - Partly cloudy 10 - - - -
20/09:30pm 13.4 SSW 15 19 1008.8 - 1.8 - Partly cloudy 10 - - - -
20/09:00pm 13.6 SSW 13 18 1008.4 - 1.8 - Cloudy 10 - - - -
20/08:30pm 13.7 SSW 15 20 1008.0 - 1.8 - Partly cloudy 10 - - - -
20/08:00pm 14.3 SSW 18 23 1007.5 - 1.8 - Partly cloudy 10 - - - -
20/07:30pm 14.1 SSW 17 24 1007.2 - 1.8 - Partly cloudy 10 - - - -
20/07:00pm 14.6 SSW 20 29 1006.6 - 1.8 - Partly cloudy 10 - - - -
20/06:57pm 14.6 SSW 19 29 1006.5 - 1.8 - Partly cloudy 10 - - - -
20/06:30pm 14.5 SSW 21 29 1006.1 - 1.8 - Partly cloudy 10 - - - -
20/06:00pm 14.9 SSW 21 29 1005.6 - 1.8 - Cloudy 10 - - - -
20/05:30pm 15.6 SW 21 28 1005.1 - 1.8 - Partly cloudy 10 - - - -
20/05:00pm 16.0 SSW 20 27 1004.6 - 1.8 - Partly cloudy 10 - - - -
20/04:30pm 16.1 SSW 23 29 1004.0 - 1.8 - Partly cloudy 10 - - - -
20/04:00pm 15.7 SW 24 31 1003.9 - 1.8 - Partly cloudy 10 - - - -
20/03:31pm 15.6 SW 23 34 1003.5 - 1.8 - Partly cloudy 10 - - - -
20/03:30pm 15.2 SW 23 31 1003.5 - 1.8 - Partly cloudy 10 - - - -
20/03:16pm 14.9 SW 23 30 1003.2 - 1.8 - Partly cloudy 10 - - - -
20/03:00pm 14.6 SW 21 28 1002.9 - 1.8 Recent precip. Cloudy 10 - - - -
20/02:48pm 14.2 SW 21 29 1002.6 - 1.8 - Partly cloudy 9 - - - -
20/02:30pm 14.5 SSW 21 28 1001.9 - 1.6 - Partly cloudy 5 - - - -
20/02:29pm 14.5 SSW 20 28 1001.9 - 1.6 - Partly cloudy 5 - - - -
20/02:21pm 15.2 SSW 21 29 1001.6 - 1.6 - Partly cloudy 10 - - - -
20/02:16pm 15.2 SSW 23 29 1001.5 - 1.6 - Partly cloudy 10 - - - -
20/02:07pm 15.2 SSW 19 29 1001.2 - 1.6 - Partly cloudy 10 - - - -
20/02:00pm 14.3 SSW 18 25 1001.3 - 1.6 - Partly cloudy 8 - - - -
20/01:55pm 13.9 SSW 19 26 1001.3 - 1.6 - Partly cloudy 6 - - - -
20/01:32pm 14.5 SSW 19 26 1001.0 - 1.4 - Partly cloudy 4 - - - -
20/01:30pm 14.4 SSW 19 26 1001.0 - 1.4 - Partly cloudy 4 - - - -
20/01:10pm 15.0 SW 21 27 1001.1 - 0.6 - Partly cloudy 5 - - - -
20/01:00pm 16.0 SSW 21 27 1000.7 - 0.2 - Partly cloudy 10 - - - -
20/12:30pm 16.2 SSW 21 28 1000.0 - 0.2 - Partly cloudy 10 - - - -
20/12:19pm 17.3 SSW 19 28 999.6 - 0.2 - Partly cloudy 10 - - - -
20/12:00pm 15.8 SSW 19 25 999.1 - 0.2 - Cloudy 10 - - - -
20/11:30am 15.6 SSW 18 23 998.0 - 0.2 - Partly cloudy 10 - - - -
20/11:00am 16.7 SSW 19 26 996.9 - 0.2 - Partly cloudy 10 - - - -
20/10:30am 15.0 SSW 18 24 996.3 - 0.2 - Partly cloudy 10 - - - -
20/10:00am 14.5 SSW 18 24 996.0 - 0.2 - Partly cloudy 10 - - - -
20/09:40am 14.1 SSW 21 28 995.9 - 0.2 - Partly cloudy 5 - - - -
20/09:30am 14.1 SSW 20 28 996.0 - 0.2 - Partly cloudy 10 - - - -
20/09:00am 13.9 SSW 20 30 995.6 - 27.2 Drizzle Cloudy 10 - - - -
20/08:53am 13.8 SSW 19 30 995.6 - 27.2 - Partly cloudy 10 - - - -
20/08:30am 13.9 SSW 22 29 995.6 - 27.2 - Partly cloudy 10 - - - -
20/08:00am 13.6 SSW 22 30 995.9 - 27.2 - Partly cloudy 10 - - - -
20/07:30am 13.4 SSW 22 29 995.6 - 27.2 - Partly cloudy 7 - - - -
20/07:16am 13.6 SSW 20 31 995.6 - 27.0 - Cloudy 6 - - - -
20/07:13am 13.7 SSW 21 31 995.6 - 26.8 - Cloudy 6 - - - -
20/07:00am 14.1 SSW 18 26 995.5 - 26.0 - Cloudy 4 - - - -
20/06:50am 14.6 SW 15 21 995.3 - 25.4 - Partly cloudy 4 - - - -
20/06:30am 15.0 WSW 8 11 995.0 - 23.4 - Partly cloudy 4 - - - -
20/06:00am 15.0 W 9 14 994.7 - 16.4 Rain Cloudy 2 - - - -
20/05:30am 16.1 S 2 6 994.2 - 8.8 - Partly cloudy 4 - - - -
20/05:27am 16.0 SE 2 7 994.2 - 8.6 - Partly cloudy 5 - - - -
20/05:22am 16.1 E 5 7 994.3 - 8.2 - Partly cloudy 7 - - - -

Other Formats:

Comma delimited format used in spreadsheet applications
http://www.bom.gov.au/fwo/IDT60701/IDT60701.94850.axf

JavaScript Object Notation format (JSON) in row-major order
http://www.bom.gov.au/fwo/IDT60701/IDT60701.94850.json